sensor_id;sensor_type;location;lat;lon;timestamp;pressure;altitude;pressure_sealevel;temperature;humidity
9421;BME280;4749;51.398;5.466;2023-05-24T00:00:19;102236.22;;;10.91;100.00
9421;BME280;4749;51.398;5.466;2023-05-24T00:02:47;102237.03;;;10.87;100.00
9421;BME280;4749;51.398;5.466;2023-05-24T00:05:15;102235.16;;;10.83;100.00
9421;BME280;4749;51.398;5.466;2023-05-24T00:07:42;102232.47;;;10.80;100.00
9421;BME280;4749;51.398;5.466;2023-05-24T00:10:10;102229.78;;;10.77;100.00
9421;BME280;4749;51.398;5.466;2023-05-24T00:12:37;102229.72;;;10.76;100.00
9421;BME280;4749;51.398;5.466;2023-05-24T00:15:05;102232.28;;;10.73;100.00
9421;BME280;4749;51.398;5.466;2023-05-24T00:17:33;102226.06;;;10.69;100.00
9421;BME280;4749;51.398;5.466;2023-05-24T00:20:11;102223.31;;;10.64;100.00
9421;BME280;4749;51.398;5.466;2023-05-24T00:22:40;102224.94;;;10.59;100.00
9421;BME280;4749;51.398;5.466;2023-05-24T00:25:07;102216.09;;;10.56;100.00
9421;BME280;4749;51.398;5.466;2023-05-24T00:27:35;102217.81;;;10.54;100.00
9421;BME280;4749;51.398;5.466;2023-05-24T00:30:06;102212.44;;;10.51;100.00
9421;BME280;4749;51.398;5.466;2023-05-24T00:32:34;102214.97;;;10.46;100.00
9421;BME280;4749;51.398;5.466;2023-05-24T00:35:01;102215.72;;;10.40;100.00
9421;BME280;4749;51.398;5.466;2023-05-24T00:37:28;102215.59;;;10.36;100.00
9421;BME280;4749;51.398;5.466;2023-05-24T00:39:55;102213.72;;;10.32;100.00
9421;BME280;4749;51.398;5.466;2023-05-24T00:42:22;102210.91;;;10.24;100.00
9421;BME280;4749;51.398;5.466;2023-05-24T00:44:50;102203.75;;;10.19;100.00
9421;BME280;4749;51.398;5.466;2023-05-24T00:47:17;102207.09;;;10.13;100.00
9421;BME280;4749;51.398;5.466;2023-05-24T00:49:44;102208.69;;;10.08;100.00
9421;BME280;4749;51.398;5.466;2023-05-24T00:52:12;102210.38;;;10.04;100.00
9421;BME280;4749;51.398;5.466;2023-05-24T00:54:39;102212.03;;;10.01;100.00
9421;BME280;4749;51.398;5.466;2023-05-24T00:57:06;102211.00;;;9.96;100.00
9421;BME280;4749;51.398;5.466;2023-05-24T00:59:34;102210.94;;;9.93;100.00
9421;BME280;4749;51.398;5.466;2023-05-24T01:02:01;102216.09;;;9.90;100.00
9421;BME280;4749;51.398;5.466;2023-05-24T01:04:29;102204.63;;;9.86;100.00
9421;BME280;4749;51.398;5.466;2023-05-24T01:07:29;102210.66;;;9.83;100.00
9421;BME280;4749;51.398;5.466;2023-05-24T01:10:24;102199.09;;;9.75;100.00
9421;BME280;4749;51.398;5.466;2023-05-24T01:13:10;102198.91;;;9.69;100.00
9421;BME280;4749;51.398;5.466;2023-05-24T01:16:00;102198.75;;;9.65;100.00
9421;BME280;4749;51.398;5.466;2023-05-24T01:18:34;102193.38;;;9.58;100.00
9421;BME280;4749;51.398;5.466;2023-05-24T01:21:34;102190.56;;;9.52;100.00
9421;BME280;4749;51.398;5.466;2023-05-24T01:27:08;102191.19;;;9.44;100.00
9421;BME280;4749;51.398;5.466;2023-05-24T01:29:38;102194.50;;;9.38;100.00
9421;BME280;4749;51.398;5.466;2023-05-24T01:32:06;102192.59;;;9.32;100.00
9421;BME280;4749;51.398;5.466;2023-05-24T01:34:34;102194.28;;;9.30;100.00
9421;BME280;4749;51.398;5.466;2023-05-24T01:37:01;102191.53;;;9.26;100.00
9421;BME280;4749;51.398;5.466;2023-05-24T01:39:29;102195.78;;;9.22;100.00
9421;BME280;4749;51.398;5.466;2023-05-24T01:48:15;102187.56;;;9.10;100.00
9421;BME280;4749;51.398;5.466;2023-05-24T01:50:58;102191.81;;;9.07;100.00
9421;BME280;4749;51.398;5.466;2023-05-24T01:53:35;102195.22;;;9.02;100.00
9421;BME280;4749;51.398;5.466;2023-05-24T01:56:05;102190.69;;;8.98;100.00
9421;BME280;4749;51.398;5.466;2023-05-24T01:58:33;102188.91;;;8.97;100.00
9421;BME280;4749;51.398;5.466;2023-05-24T02:01:02;102176.56;;;8.93;100.00
9421;BME280;4749;51.398;5.466;2023-05-24T02:03:30;102186.91;;;8.89;100.00
9421;BME280;4749;51.398;5.466;2023-05-24T02:05:57;102178.16;;;8.88;100.00
9421;BME280;4749;51.398;5.466;2023-05-24T02:08:24;102190.25;;;8.83;100.00
9421;BME280;4749;51.398;5.466;2023-05-24T02:10:51;102174.34;;;8.79;100.00
9421;BME280;4749;51.398;5.466;2023-05-24T02:13:18;102183.88;;;8.75;100.00
9421;BME280;4749;51.398;5.466;2023-05-24T02:15:46;102185.53;;;8.73;100.00
9421;BME280;4749;51.398;5.466;2023-05-24T02:18:13;102187.13;;;8.68;100.00
9421;BME280;4749;51.398;5.466;2023-05-24T02:20:41;102189.66;;;8.65;100.00
9421;BME280;4749;51.398;5.466;2023-05-24T02:23:08;102186.09;;;8.63;100.00
9421;BME280;4749;51.398;5.466;2023-05-24T02:25:36;102187.69;;;8.58;100.00
9421;BME280;4749;51.398;5.466;2023-05-24T02:28:03;102185.88;;;8.57;100.00
9421;BME280;4749;51.398;5.466;2023-05-24T02:30:30;102190.19;;;8.55;100.00
9421;BME280;4749;51.398;5.466;2023-05-24T02:32:57;102192.69;;;8.50;100.00
9421;BME280;4749;51.398;5.466;2023-05-24T02:35:24;102195.16;;;8.45;100.00
9421;BME280;4749;51.398;5.466;2023-05-24T02:37:51;102206.44;;;8.43;100.00
9421;BME280;4749;51.398;5.466;2023-05-24T02:40:18;102199.34;;;8.40;100.00
9421;BME280;4749;51.398;5.466;2023-05-24T02:42:45;102196.66;;;8.39;100.00
9421;BME280;4749;51.398;5.466;2023-05-24T02:45:12;102194.81;;;8.35;100.00
9421;BME280;4749;51.398;5.466;2023-05-24T02:47:39;102191.13;;;8.31;100.00
9421;BME280;4749;51.398;5.466;2023-05-24T02:50:08;102184.06;;;8.29;100.00
9421;BME280;4749;51.398;5.466;2023-05-24T02:52:35;102193.66;;;8.28;100.00
9421;BME280;4749;51.398;5.466;2023-05-24T02:55:03;102195.19;;;8.22;100.00
9421;BME280;4749;51.398;5.466;2023-05-24T02:57:30;102190.66;;;8.16;100.00
9421;BME280;4749;51.398;5.466;2023-05-24T03:00:00;102195.75;;;8.13;100.00
9421;BME280;4749;51.398;5.466;2023-05-24T03:02:27;102193.88;;;8.09;100.00
9421;BME280;4749;51.398;5.466;2023-05-24T03:04:59;102192.88;;;8.05;100.00
9421;BME280;4749;51.398;5.466;2023-05-24T03:07:27;102198.03;;;8.02;100.00
9421;BME280;4749;51.398;5.466;2023-05-24T03:09:54;102203.09;;;7.98;100.00
9421;BME280;4749;51.398;5.466;2023-05-24T03:12:21;102202.09;;;7.94;100.00
9421;BME280;4749;51.398;5.466;2023-05-24T03:14:48;102195.09;;;7.93;100.00
9421;BME280;4749;51.398;5.466;2023-05-24T03:17:15;102202.91;;;7.92;100.00
9421;BME280;4749;51.398;5.466;2023-05-24T03:19:42;102203.75;;;7.90;100.00
9421;BME280;4749;51.398;5.466;2023-05-24T03:22:10;102193.19;;;7.89;100.00
9421;BME280;4749;51.398;5.466;2023-05-24T03:24:37;102199.31;;;7.89;100.00
9421;BME280;4749;51.398;5.466;2023-05-24T03:27:05;102198.31;;;7.86;100.00
9421;BME280;4749;51.398;5.466;2023-05-24T03:29:32;102192.19;;;7.85;100.00
9421;BME280;4749;51.398;5.466;2023-05-24T03:31:59;102190.50;;;7.87;100.00
9421;BME280;4749;51.398;5.466;2023-05-24T03:34:26;102192.28;;;7.88;100.00
9421;BME280;4749;51.398;5.466;2023-05-24T03:36:53;102195.69;;;7.86;100.00
9421;BME280;4749;51.398;5.466;2023-05-24T03:39:21;102199.25;;;7.88;100.00
9421;BME280;4749;51.398;5.466;2023-05-24T03:41:48;102197.44;;;7.85;100.00
9421;BME280;4749;51.398;5.466;2023-05-24T03:44:15;102196.53;;;7.85;100.00
9421;BME280;4749;51.398;5.466;2023-05-24T03:46:42;102194.81;;;7.85;100.00
9421;BME280;4749;51.398;5.466;2023-05-24T03:49:09;102193.09;;;7.86;100.00
9421;BME280;4749;51.398;5.466;2023-05-24T03:51:36;102191.41;;;7.88;100.00
9421;BME280;4749;51.398;5.466;2023-05-24T03:54:03;102199.31;;;7.89;100.00
9421;BME280;4749;51.398;5.466;2023-05-24T03:56:31;102199.31;;;7.89;100.00
9421;BME280;4749;51.398;5.466;2023-05-24T03:58:58;102197.75;;;7.95;100.00
9421;BME280;4749;51.398;5.466;2023-05-24T04:01:29;102196.06;;;7.97;100.00
9421;BME280;4749;51.398;5.466;2023-05-24T04:04:03;102196.19;;;8.00;100.00
9421;BME280;4749;51.398;5.466;2023-05-24T04:06:31;102208.53;;;8.04;100.00
9421;BME280;4749;51.398;5.466;2023-05-24T04:08:59;102200.78;;;8.07;100.00
9421;BME280;4749;51.398;5.466;2023-05-24T04:11:27;102197.59;;;8.15;100.00
9421;BME280;4749;51.398;5.466;2023-05-24T04:13:56;102194.28;;;8.21;100.00
9421;BME280;4749;51.398;5.466;2023-05-24T04:16:23;102213.69;;;8.26;100.00
9421;BME280;4749;51.398;5.466;2023-05-24T04:18:56;102207.81;;;8.33;100.00
9421;BME280;4749;51.398;5.466;2023-05-24T04:21:23;102207.28;;;8.42;100.00
9421;BME280;4749;51.398;5.466;2023-05-24T04:23:51;102205.03;;;8.54;100.00
9421;BME280;4749;51.398;5.466;2023-05-24T04:26:18;102197.72;;;8.71;100.00
9421;BME280;4749;51.398;5.466;2023-05-24T04:28:47;102199.94;;;8.86;100.00
9421;BME280;4749;51.398;5.466;2023-05-24T04:31:14;102203.06;;;9.02;100.00
9421;BME280;4749;51.398;5.466;2023-05-24T04:33:42;102199.16;;;9.17;100.00
9421;BME280;4749;51.398;5.466;2023-05-24T04:36:09;102201.34;;;9.33;100.00
9421;BME280;4749;51.398;5.466;2023-05-24T04:38:38;102197.53;;;9.52;100.00
9421;BME280;4749;51.398;5.466;2023-05-24T04:41:06;102206.78;;;9.69;100.00
9421;BME280;4749;51.398;5.466;2023-05-24T04:43:34;102209.72;;;9.81;100.00
9421;BME280;4749;51.398;5.466;2023-05-24T04:46:01;102209.28;;;9.96;100.00
9421;BME280;4749;51.398;5.466;2023-05-24T04:48:28;102211.31;;;10.08;100.00
9421;BME280;4749;51.398;5.466;2023-05-24T04:50:56;102204.66;;;10.21;100.00
9421;BME280;4749;51.398;5.466;2023-05-24T04:53:24;102213.72;;;10.32;100.00
9421;BME280;4749;51.398;5.466;2023-05-24T04:55:52;102205.28;;;10.43;100.00
9421;BME280;4749;51.398;5.466;2023-05-24T04:58:19;102208.13;;;10.53;100.00
9421;BME280;4749;51.398;5.466;2023-05-24T05:00:46;102204.91;;;10.64;100.00
9421;BME280;4749;51.398;5.466;2023-05-24T05:03:13;102211.25;;;10.74;100.00
9421;BME280;4749;51.398;5.466;2023-05-24T05:05:41;102210.69;;;10.86;100.00
9421;BME280;4749;51.398;5.466;2023-05-24T05:08:08;102208.16;;;10.92;100.00
9421;BME280;4749;51.398;5.466;2023-05-24T05:10:35;102213.72;;;11.03;100.00
9421;BME280;4749;51.398;5.466;2023-05-24T05:13:03;102218.28;;;11.11;100.00
9421;BME280;4749;51.398;5.466;2023-05-24T05:15:30;102207.09;;;11.21;100.00
9421;BME280;4749;51.398;5.466;2023-05-24T05:17:58;102204.69;;;11.32;100.00
9421;BME280;4749;51.398;5.466;2023-05-24T05:20:26;102200.56;;;11.45;100.00
9421;BME280;4749;51.398;5.466;2023-05-24T05:22:53;102201.66;;;11.56;100.00
9421;BME280;4749;51.398;5.466;2023-05-24T05:25:20;102200.13;;;11.67;100.00
9421;BME280;4749;51.398;5.466;2023-05-24T05:27:48;102209.22;;;11.80;100.00
9421;BME280;4749;51.398;5.466;2023-05-24T05:30:15;102223.41;;;11.88;100.00
9421;BME280;4749;51.398;5.466;2023-05-24T05:32:42;102224.47;;;11.98;100.00
9421;BME280;4749;51.398;5.466;2023-05-24T05:35:09;102221.13;;;12.06;100.00
9421;BME280;4749;51.398;5.466;2023-05-24T05:37:36;102221.31;;;12.17;100.00
9421;BME280;4749;51.398;5.466;2023-05-24T05:40:04;102217.94;;;12.26;100.00
9421;BME280;4749;51.398;5.466;2023-05-24T05:42:31;102221.69;;;12.37;100.00
9421;BME280;4749;51.398;5.466;2023-05-24T05:44:59;102220.97;;;12.47;100.00
9421;BME280;4749;51.398;5.466;2023-05-24T05:47:26;102222.94;;;12.60;100.00
9421;BME280;4749;51.398;5.466;2023-05-24T05:49:54;102212.56;;;12.71;100.00
9421;BME280;4749;51.398;5.466;2023-05-24T05:52:21;102219.78;;;12.84;100.00
9421;BME280;4749;51.398;5.466;2023-05-24T05:54:49;102223.50;;;12.97;100.00
9421;BME280;4749;51.398;5.466;2023-05-24T05:57:16;102226.28;;;13.05;100.00
9421;BME280;4749;51.398;5.466;2023-05-24T05:59:50;102225.56;;;13.18;100.00
9421;BME280;4749;51.398;5.466;2023-05-24T06:02:17;102229.31;;;13.31;100.00
9421;BME280;4749;51.398;5.466;2023-05-24T06:04:45;102228.56;;;13.42;100.00
9421;BME280;4749;51.398;5.466;2023-05-24T06:07:13;102241.06;;;13.54;100.00
9421;BME280;4749;51.398;5.466;2023-05-24T06:09:40;102235.03;;;13.66;100.00
9421;BME280;4749;51.398;5.466;2023-05-24T06:12:07;102234.31;;;13.79;100.00
9421;BME280;4749;51.398;5.466;2023-05-24T06:14:34;102243.22;;;13.89;100.00
9421;BME280;4749;51.398;5.466;2023-05-24T06:17:07;102241.56;;;13.97;100.00
9421;BME280;4749;51.398;5.466;2023-05-24T06:19:35;102250.50;;;14.08;100.00
9421;BME280;4749;51.398;5.466;2023-05-24T06:22:02;102245.31;;;14.20;100.00
9421;BME280;4749;51.398;5.466;2023-05-24T06:24:29;102246.28;;;14.28;100.00
9421;BME280;4749;51.398;5.466;2023-05-24T06:26:56;102245.47;;;14.35;100.00
9421;BME280;4749;51.398;5.466;2023-05-24T06:29:23;102250.81;;;14.42;100.00
9421;BME280;4749;51.398;5.466;2023-05-24T06:31:51;102254.44;;;14.47;100.00
9421;BME280;4749;51.398;5.466;2023-05-24T06:34:19;102255.41;;;14.58;100.00
9421;BME280;4749;51.398;5.466;2023-05-24T06:36:49;102259.91;;;14.70;100.00
9421;BME280;4749;51.398;5.466;2023-05-24T06:39:18;102259.13;;;14.80;100.00
9421;BME280;4749;51.398;5.466;2023-05-24T06:41:46;102257.41;;;14.88;100.00
9421;BME280;4749;51.398;5.466;2023-05-24T06:44:13;102253.19;;;15.17;100.00
9421;BME280;4749;51.398;5.466;2023-05-24T06:46:40;102245.34;;;15.36;100.00
9421;BME280;4749;51.398;5.466;2023-05-24T06:49:08;102255.09;;;15.44;100.00
9421;BME280;4749;51.398;5.466;2023-05-24T06:51:35;102257.75;;;15.46;100.00
9421;BME280;4749;51.398;5.466;2023-05-24T06:54:03;102255.16;;;15.51;100.00
9421;BME280;4749;51.398;5.466;2023-05-24T06:56:30;102245.50;;;15.62;100.00
9421;BME280;4749;51.398;5.466;2023-05-24T06:58:59;102259.69;;;15.79;100.00
9421;BME280;4749;51.398;5.466;2023-05-24T07:01:26;102259.78;;;16.05;100.00
9421;BME280;4749;51.398;5.466;2023-05-24T07:03:54;102266.91;;;16.29;100.00
9421;BME280;4749;51.398;5.466;2023-05-24T07:06:21;102267.81;;;16.46;100.00
9421;BME280;4749;51.398;5.466;2023-05-24T07:08:48;102265.19;;;16.72;100.00
9421;BME280;4749;51.398;5.466;2023-05-24T07:11:15;102268.72;;;16.88;100.00
9421;BME280;4749;51.398;5.466;2023-05-24T07:13:42;102264.31;;;16.90;100.00
9421;BME280;4749;51.398;5.466;2023-05-24T07:16:09;102263.44;;;16.85;100.00
9421;BME280;4749;51.398;5.466;2023-05-24T07:18:37;102263.44;;;16.82;100.00
9421;BME280;4749;51.398;5.466;2023-05-24T07:21:07;102269.59;;;16.67;100.00
9421;BME280;4749;51.398;5.466;2023-05-24T07:23:34;102271.41;;;16.77;100.00
9421;BME280;4749;51.398;5.466;2023-05-24T07:26:03;102267.88;;;16.77;100.00
9421;BME280;4749;51.398;5.466;2023-05-24T07:28:31;102271.41;;;16.70;100.00
9421;BME280;4749;51.398;5.466;2023-05-24T07:30:59;102283.75;;;16.43;100.00
9421;BME280;4749;51.398;5.466;2023-05-24T07:33:26;102279.31;;;16.38;100.00
9421;BME280;4749;51.398;5.466;2023-05-24T07:35:53;102289.03;;;16.36;100.00
9421;BME280;4749;51.398;5.466;2023-05-24T07:38:20;102281.97;;;16.56;100.00
9421;BME280;4749;51.398;5.466;2023-05-24T07:40:48;102289.13;;;16.75;100.00
9421;BME280;4749;51.398;5.466;2023-05-24T07:43:15;102284.66;;;16.73;100.00
9421;BME280;4749;51.398;5.466;2023-05-24T07:45:42;102277.56;;;16.98;100.00
9421;BME280;4749;51.398;5.466;2023-05-24T07:48:10;102277.53;;;17.28;100.00
9421;BME280;4749;51.398;5.466;2023-05-24T07:50:37;102287.22;;;17.58;100.00
9421;BME280;4749;51.398;5.466;2023-05-24T07:53:04;102281.81;;;17.84;100.00
9421;BME280;4749;51.398;5.466;2023-05-24T07:55:32;102280.81;;;18.02;100.00
9421;BME280;4749;51.398;5.466;2023-05-24T07:57:59;102287.91;;;18.08;100.00
9421;BME280;4749;51.398;5.466;2023-05-24T08:00:27;102278.19;;;17.97;100.00
9421;BME280;4749;51.398;5.466;2023-05-24T08:02:55;102278.31;;;17.71;100.00
9421;BME280;4749;51.398;5.466;2023-05-24T08:05:23;102276.56;;;17.48;100.00
9421;BME280;4749;51.398;5.466;2023-05-24T08:07:50;102278.34;;;17.58;100.00
9421;BME280;4749;51.398;5.466;2023-05-24T08:10:19;102280.09;;;17.74;100.00
9421;BME280;4749;51.398;5.466;2023-05-24T08:12:46;102276.53;;;17.75;100.00
9421;BME280;4749;51.398;5.466;2023-05-24T08:15:15;102277.50;;;17.39;100.00
9421;BME280;4749;51.398;5.466;2023-05-24T08:17:43;102278.47;;;17.10;100.00
9421;BME280;4749;51.398;5.466;2023-05-24T08:20:11;102281.16;;;16.75;100.00
9421;BME280;4749;51.398;5.466;2023-05-24T08:22:42;102274.91;;;16.64;100.00
9421;BME280;4749;51.398;5.466;2023-05-24T08:25:10;102274.91;;;16.58;100.00
9421;BME280;4749;51.398;5.466;2023-05-24T08:27:40;102283.81;;;16.74;96.66
9421;BME280;4749;51.398;5.466;2023-05-24T08:30:07;102276.72;;;16.83;96.19
9421;BME280;4749;51.398;5.466;2023-05-24T08:32:35;102271.38;;;17.15;94.41
9421;BME280;4749;51.398;5.466;2023-05-24T08:35:03;102267.72;;;17.52;93.84
9421;BME280;4749;51.398;5.466;2023-05-24T08:37:47;102256.94;;;17.90;92.17
9421;BME280;4749;51.398;5.466;2023-05-24T08:40:16;102276.34;;;18.12;89.75
9421;BME280;4749;51.398;5.466;2023-05-24T08:42:44;102272.75;;;18.14;87.44
9421;BME280;4749;51.398;5.466;2023-05-24T08:45:14;102262.06;;;18.25;86.05
9421;BME280;4749;51.398;5.466;2023-05-24T08:47:42;102264.63;;;18.39;85.42
9421;BME280;4749;51.398;5.466;2023-05-24T08:50:10;102259.25;;;18.45;84.99
9421;BME280;4749;51.398;5.466;2023-05-24T08:52:37;102256.75;;;18.22;84.10
9421;BME280;4749;51.398;5.466;2023-05-24T08:55:06;102251.50;;;18.07;84.10
9421;BME280;4749;51.398;5.466;2023-05-24T08:57:35;102252.38;;;18.16;83.64
9421;BME280;4749;51.398;5.466;2023-05-24T09:00:09;102253.28;;;18.11;83.91
9421;BME280;4749;51.398;5.466;2023-05-24T09:02:40;102253.25;;;18.14;83.50
9421;BME280;4749;51.398;5.466;2023-05-24T09:05:11;102254.84;;;18.39;82.80
9421;BME280;4749;51.398;5.466;2023-05-24T09:07:42;102244.06;;;18.56;81.61
9421;BME280;4749;51.398;5.466;2023-05-24T09:10:11;102246.78;;;18.48;81.47
9421;BME280;4749;51.398;5.466;2023-05-24T09:12:41;102244.91;;;18.61;80.98
9421;BME280;4749;51.398;5.466;2023-05-24T09:15:10;102236.06;;;18.56;80.63
9421;BME280;4749;51.398;5.466;2023-05-24T09:17:37;102236.97;;;18.55;79.78
9421;BME280;4749;51.398;5.466;2023-05-24T09:20:07;102245.06;;;18.44;79.58
9421;BME280;4749;51.398;5.466;2023-05-24T09:22:39;102252.13;;;18.47;78.79
9421;BME280;4749;51.398;5.466;2023-05-24T09:25:12;102242.44;;;18.38;78.58
9421;BME280;4749;51.398;5.466;2023-05-24T09:27:40;102249.56;;;18.35;78.78
9421;BME280;4749;51.398;5.466;2023-05-24T09:30:10;102253.22;;;18.20;78.82
9421;BME280;4749;51.398;5.466;2023-05-24T09:32:39;102243.50;;;18.13;79.14
9421;BME280;4749;51.398;5.466;2023-05-24T09:35:08;102247.84;;;18.26;78.22
9421;BME280;4749;51.398;5.466;2023-05-24T09:37:36;102244.25;;;18.33;78.01
9421;BME280;4749;51.398;5.466;2023-05-24T09:40:17;102244.06;;;18.59;77.43
9421;BME280;4749;51.398;5.466;2023-05-24T09:42:46;102239.53;;;18.70;77.51
9421;BME280;4749;51.398;5.466;2023-05-24T09:45:19;102243.56;;;19.12;76.95
9421;BME280;4749;51.398;5.466;2023-05-24T09:47:48;102235.28;;;19.38;76.12
9421;BME280;4749;51.398;5.466;2023-05-24T09:50:16;102241.50;;;19.37;75.49
9421;BME280;4749;51.398;5.466;2023-05-24T09:52:44;102236.84;;;19.59;74.54
9421;BME280;4749;51.398;5.466;2023-05-24T09:55:18;102229.31;;;19.89;73.77
9421;BME280;4749;51.398;5.466;2023-05-24T09:58:05;102226.34;;;20.10;72.14
9421;BME280;4749;51.398;5.466;2023-05-24T10:00:39;102224.16;;;20.37;71.35
9421;BME280;4749;51.398;5.466;2023-05-24T10:03:09;102211.34;;;20.60;70.38
9421;BME280;4749;51.398;5.466;2023-05-24T10:05:41;102222.31;;;20.91;69.54
9421;BME280;4749;51.398;5.466;2023-05-24T10:08:09;102219.13;;;21.19;68.83
9421;BME280;4749;51.398;5.466;2023-05-24T10:10:37;102222.84;;;21.56;67.74
9421;BME280;4749;51.398;5.466;2023-05-24T10:13:04;102236.91;;;21.66;66.50
9421;BME280;4749;51.398;5.466;2023-05-24T10:15:31;102231.44;;;21.72;65.58
9421;BME280;4749;51.398;5.466;2023-05-24T10:17:59;102217.47;;;21.58;65.05
9421;BME280;4749;51.398;5.466;2023-05-24T10:20:28;102220.28;;;21.50;64.65
9421;BME280;4749;51.398;5.466;2023-05-24T10:23:00;102224.38;;;21.68;62.71
9421;BME280;4749;51.398;5.466;2023-05-24T10:25:33;102223.03;;;21.89;62.99
9421;BME280;4749;51.398;5.466;2023-05-24T10:28:06;102230.84;;;21.98;63.13
9421;BME280;4749;51.398;5.466;2023-05-24T10:30:43;102225.16;;;21.73;63.62
9421;BME280;4749;51.398;5.466;2023-05-24T10:33:14;102223.94;;;21.48;63.42
9421;BME280;4749;51.398;5.466;2023-05-24T10:35:43;102213.66;;;21.28;63.41
9421;BME280;4749;51.398;5.466;2023-05-24T10:38:11;102214.59;;;21.22;63.22
9421;BME280;4749;51.398;5.466;2023-05-24T10:40:42;102224.47;;;21.20;63.49
9421;BME280;4749;51.398;5.466;2023-05-24T10:43:09;102212.00;;;21.19;62.92
9421;BME280;4749;51.398;5.466;2023-05-24T10:45:39;102219.34;;;21.08;63.30
9421;BME280;4749;51.398;5.466;2023-05-24T10:50:40;102216.81;;;21.47;63.28
9421;BME280;4749;51.398;5.466;2023-05-24T10:53:17;102212.69;;;21.72;62.26
9421;BME280;4749;51.398;5.466;2023-05-24T10:56:01;102213.44;;;21.79;62.07
9421;BME280;4749;51.398;5.466;2023-05-24T11:01:28;102203.66;;;21.76;61.85
9421;BME280;4749;51.398;5.466;2023-05-24T11:04:15;102211.91;;;21.67;61.08
9421;BME280;4749;51.398;5.466;2023-05-24T11:06:56;102200.84;;;21.42;60.72
9421;BME280;4749;51.398;5.466;2023-05-24T11:09:24;102204.78;;;21.23;61.41
9421;BME280;4749;51.398;5.466;2023-05-24T11:12:08;102204.00;;;21.19;60.65
9421;BME280;4749;51.398;5.466;2023-05-24T11:14:38;102201.81;;;21.40;61.00
9421;BME280;4749;51.398;5.466;2023-05-24T11:17:06;102209.19;;;21.70;60.30
9421;BME280;4749;51.398;5.466;2023-05-24T11:22:06;102206.66;;;22.01;60.15
9421;BME280;4749;51.398;5.466;2023-05-24T11:24:33;102206.25;;;22.21;59.69
9421;BME280;4749;51.398;5.466;2023-05-24T11:27:01;102201.50;;;22.32;59.44
9421;BME280;4749;51.398;5.466;2023-05-24T11:29:29;102207.22;;;22.53;59.47
9421;BME280;4749;51.398;5.466;2023-05-24T11:31:59;102206.00;;;22.66;59.33
9421;BME280;4749;51.398;5.466;2023-05-24T11:34:32;102213.13;;;22.67;59.37
9421;BME280;4749;51.398;5.466;2023-05-24T11:37:02;102202.69;;;22.56;59.03
9421;BME280;4749;51.398;5.466;2023-05-24T11:39:33;102200.47;;;22.38;58.81
9421;BME280;4749;51.398;5.466;2023-05-24T11:42:05;102202.88;;;22.13;58.57
9421;BME280;4749;51.398;5.466;2023-05-24T11:44:34;102204.34;;;21.86;58.84
9421;BME280;4749;51.398;5.466;2023-05-24T11:47:06;102209.28;;;21.66;58.48
9421;BME280;4749;51.398;5.466;2023-05-24T11:49:35;102200.50;;;21.59;58.79
9421;BME280;4749;51.398;5.466;2023-05-24T11:52:02;102198.31;;;21.76;58.68
9421;BME280;4749;51.398;5.466;2023-05-24T11:54:30;102198.09;;;21.87;58.12
9421;BME280;4749;51.398;5.466;2023-05-24T11:57:01;102199.91;;;21.85;58.46
9421;BME280;4749;51.398;5.466;2023-05-24T11:59:29;102201.75;;;21.83;58.69
9421;BME280;4749;51.398;5.466;2023-05-24T12:02:02;102194.69;;;21.80;58.72
9421;BME280;4749;51.398;5.466;2023-05-24T12:04:31;102192.03;;;21.79;58.78
9421;BME280;4749;51.398;5.466;2023-05-24T12:06:59;102187.66;;;21.75;58.89
9421;BME280;4749;51.398;5.466;2023-05-24T12:09:27;102200.28;;;21.68;58.66
9421;BME280;4749;51.398;5.466;2023-05-24T12:11:55;102195.22;;;21.56;58.93
9421;BME280;4749;51.398;5.466;2023-05-24T12:14:29;102190.19;;;21.41;59.37
9421;BME280;4749;51.398;5.466;2023-05-24T12:16:59;102193.94;;;21.32;59.54
9421;BME280;4749;51.398;5.466;2023-05-24T12:19:33;102193.13;;;21.25;59.67
9421;BME280;4749;51.398;5.466;2023-05-24T12:22:04;102192.19;;;21.31;60.09
9421;BME280;4749;51.398;5.466;2023-05-24T12:24:33;102194.50;;;21.48;60.03
9421;BME280;4749;51.398;5.466;2023-05-24T12:27:03;102189.50;;;21.73;60.06
9421;BME280;4749;51.398;5.466;2023-05-24T12:29:36;102195.03;;;22.02;59.24
9421;BME280;4749;51.398;5.466;2023-05-24T12:32:05;102189.09;;;22.28;59.56
9421;BME280;4749;51.398;5.466;2023-05-24T12:34:42;102194.28;;;22.34;59.14
9421;BME280;4749;51.398;5.466;2023-05-24T12:37:13;102192.66;;;22.29;59.60
9421;BME280;4749;51.398;5.466;2023-05-24T12:39:42;102197.50;;;22.13;59.43
9421;BME280;4749;51.398;5.466;2023-05-24T12:42:11;102192.53;;;21.96;59.49
9421;BME280;4749;51.398;5.466;2023-05-24T12:44:41;102191.13;;;21.80;59.79
9421;BME280;4749;51.398;5.466;2023-05-24T12:47:11;102182.38;;;21.72;60.20
9421;BME280;4749;51.398;5.466;2023-05-24T12:49:38;102184.09;;;21.74;60.25
9421;BME280;4749;51.398;5.466;2023-05-24T12:52:05;102187.53;;;21.81;60.50
9421;BME280;4749;51.398;5.466;2023-05-24T12:54:33;102189.34;;;21.79;60.04
9421;BME280;4749;51.398;5.466;2023-05-24T12:57:00;102187.78;;;21.70;60.15
9421;BME280;4749;51.398;5.466;2023-05-24T12:59:29;102180.91;;;21.57;60.05
9421;BME280;4749;51.398;5.466;2023-05-24T13:01:57;102177.44;;;21.52;59.88
9421;BME280;4749;51.398;5.466;2023-05-24T13:04:24;102183.78;;;21.48;60.21
9421;BME280;4749;51.398;5.466;2023-05-24T13:06:56;102176.84;;;21.39;60.43
9421;BME280;4749;51.398;5.466;2023-05-24T13:09:23;102182.31;;;21.33;60.61
9421;BME280;4749;51.398;5.466;2023-05-24T13:11:52;102182.56;;;21.21;60.48
9421;BME280;4749;51.398;5.466;2023-05-24T13:14:23;102174.84;;;21.05;60.57
9421;BME280;4749;51.398;5.466;2023-05-24T13:16:50;102180.38;;;20.96;61.02
9421;BME280;4749;51.398;5.466;2023-05-24T13:19:18;102182.94;;;21.01;60.80
9421;BME280;4749;51.398;5.466;2023-05-24T13:21:45;102170.97;;;21.20;60.80
9421;BME280;4749;51.398;5.466;2023-05-24T13:24:16;102182.06;;;21.45;60.64
9421;BME280;4749;51.398;5.466;2023-05-24T13:26:44;102182.28;;;21.75;60.54
9421;BME280;4749;51.398;5.466;2023-05-24T13:29:12;102176.25;;;22.05;60.86
9421;BME280;4749;51.398;5.466;2023-05-24T13:31:42;102185.28;;;22.38;60.74
9421;BME280;4749;51.398;5.466;2023-05-24T13:34:11;102183.81;;;22.59;60.61